sensor_id;sensor_type;location;lat;lon;timestamp;P1;durP1;ratioP1;P2;durP2;ratioP2
12042;SDS011;6082;49.306;12.862;2023-04-03T00:01:40;2.07;;;1.70;;
12042;SDS011;6082;49.306;12.862;2023-04-03T00:04:07;4.17;;;1.87;;
12042;SDS011;6082;49.306;12.862;2023-04-03T00:06:33;3.37;;;2.10;;
12042;SDS011;6082;49.306;12.862;2023-04-03T00:09:00;4.60;;;1.63;;
12042;SDS011;6082;49.306;12.862;2023-04-03T00:11:26;3.30;;;1.90;;
12042;SDS011;6082;49.306;12.862;2023-04-03T00:13:52;3.20;;;2.33;;
12042;SDS011;6082;49.306;12.862;2023-04-03T00:16:18;5.60;;;2.23;;
12042;SDS011;6082;49.306;12.862;2023-04-03T00:18:44;3.43;;;2.10;;
12042;SDS011;6082;49.306;12.862;2023-04-03T00:21:12;2.37;;;1.87;;
12042;SDS011;6082;49.306;12.862;2023-04-03T00:23:39;2.63;;;1.90;;
12042;SDS011;6082;49.306;12.862;2023-04-03T00:26:05;3.73;;;2.20;;
12042;SDS011;6082;49.306;12.862;2023-04-03T00:28:31;2.80;;;1.93;;
12042;SDS011;6082;49.306;12.862;2023-04-03T00:30:57;5.80;;;2.50;;
12042;SDS011;6082;49.306;12.862;2023-04-03T00:33:23;5.63;;;2.00;;
12042;SDS011;6082;49.306;12.862;2023-04-03T00:35:49;3.87;;;2.20;;
12042;SDS011;6082;49.306;12.862;2023-04-03T00:38:16;4.63;;;1.90;;
12042;SDS011;6082;49.306;12.862;2023-04-03T00:40:42;2.13;;;1.90;;
12042;SDS011;6082;49.306;12.862;2023-04-03T00:43:21;2.97;;;1.93;;
12042;SDS011;6082;49.306;12.862;2023-04-03T00:45:48;4.27;;;2.03;;
12042;SDS011;6082;49.306;12.862;2023-04-03T00:50:59;2.57;;;2.27;;
12042;SDS011;6082;49.306;12.862;2023-04-03T00:53:27;2.10;;;1.60;;
12042;SDS011;6082;49.306;12.862;2023-04-03T00:55:56;2.30;;;2.10;;
12042;SDS011;6082;49.306;12.862;2023-04-03T00:58:25;3.33;;;1.83;;
12042;SDS011;6082;49.306;12.862;2023-04-03T01:00:53;3.83;;;2.43;;
12042;SDS011;6082;49.306;12.862;2023-04-03T01:03:22;2.37;;;1.93;;
12042;SDS011;6082;49.306;12.862;2023-04-03T01:05:48;2.73;;;1.80;;
12042;SDS011;6082;49.306;12.862;2023-04-03T01:08:15;3.50;;;2.27;;
12042;SDS011;6082;49.306;12.862;2023-04-03T01:10:44;4.27;;;2.30;;
12042;SDS011;6082;49.306;12.862;2023-04-03T01:13:18;2.87;;;1.93;;
12042;SDS011;6082;49.306;12.862;2023-04-03T01:15:45;1.70;;;1.60;;
12042;SDS011;6082;49.306;12.862;2023-04-03T01:18:11;2.00;;;1.80;;
12042;SDS011;6082;49.306;12.862;2023-04-03T01:23:38;2.77;;;1.77;;
12042;SDS011;6082;49.306;12.862;2023-04-03T01:26:09;2.63;;;1.83;;
12042;SDS011;6082;49.306;12.862;2023-04-03T01:28:36;2.37;;;1.80;;
12042;SDS011;6082;49.306;12.862;2023-04-03T01:33:32;3.30;;;2.30;;
12042;SDS011;6082;49.306;12.862;2023-04-03T01:35:58;2.37;;;1.47;;
12042;SDS011;6082;49.306;12.862;2023-04-03T01:38:25;3.07;;;2.03;;
12042;SDS011;6082;49.306;12.862;2023-04-03T01:40:51;2.20;;;1.90;;
12042;SDS011;6082;49.306;12.862;2023-04-03T01:43:17;2.80;;;1.63;;
12042;SDS011;6082;49.306;12.862;2023-04-03T01:45:43;2.60;;;1.80;;
12042;SDS011;6082;49.306;12.862;2023-04-03T01:48:09;2.27;;;1.70;;
12042;SDS011;6082;49.306;12.862;2023-04-03T01:50:35;3.00;;;1.93;;
12042;SDS011;6082;49.306;12.862;2023-04-03T01:53:01;2.53;;;1.93;;
12042;SDS011;6082;49.306;12.862;2023-04-03T01:55:28;3.40;;;1.70;;
12042;SDS011;6082;49.306;12.862;2023-04-03T01:57:54;4.70;;;2.10;;
12042;SDS011;6082;49.306;12.862;2023-04-03T02:00:20;2.93;;;2.07;;
12042;SDS011;6082;49.306;12.862;2023-04-03T02:02:46;2.50;;;2.10;;
12042;SDS011;6082;49.306;12.862;2023-04-03T02:05:12;6.47;;;1.90;;
12042;SDS011;6082;49.306;12.862;2023-04-03T02:07:38;2.20;;;1.83;;
12042;SDS011;6082;49.306;12.862;2023-04-03T02:10:04;4.30;;;2.00;;
12042;SDS011;6082;49.306;12.862;2023-04-03T02:12:31;3.00;;;1.80;;
12042;SDS011;6082;49.306;12.862;2023-04-03T02:14:57;3.10;;;2.03;;
12042;SDS011;6082;49.306;12.862;2023-04-03T02:17:23;4.57;;;1.97;;
12042;SDS011;6082;49.306;12.862;2023-04-03T02:19:49;2.27;;;1.83;;
12042;SDS011;6082;49.306;12.862;2023-04-03T02:22:15;4.30;;;1.43;;
12042;SDS011;6082;49.306;12.862;2023-04-03T02:24:41;3.07;;;2.07;;
12042;SDS011;6082;49.306;12.862;2023-04-03T02:27:07;2.80;;;2.20;;
12042;SDS011;6082;49.306;12.862;2023-04-03T02:29:33;3.10;;;2.10;;
12042;SDS011;6082;49.306;12.862;2023-04-03T02:31:59;2.67;;;2.27;;
12042;SDS011;6082;49.306;12.862;2023-04-03T02:34:25;2.37;;;1.87;;
12042;SDS011;6082;49.306;12.862;2023-04-03T02:36:51;2.03;;;1.67;;
12042;SDS011;6082;49.306;12.862;2023-04-03T02:39:18;2.50;;;2.17;;
12042;SDS011;6082;49.306;12.862;2023-04-03T02:41:44;2.27;;;1.90;;
12042;SDS011;6082;49.306;12.862;2023-04-03T02:44:10;2.87;;;1.80;;
12042;SDS011;6082;49.306;12.862;2023-04-03T02:46:37;2.40;;;1.83;;
12042;SDS011;6082;49.306;12.862;2023-04-03T02:49:03;2.07;;;1.83;;
12042;SDS011;6082;49.306;12.862;2023-04-03T02:51:29;2.17;;;1.93;;
12042;SDS011;6082;49.306;12.862;2023-04-03T02:53:55;3.20;;;2.23;;
12042;SDS011;6082;49.306;12.862;2023-04-03T02:56:22;2.47;;;1.90;;
12042;SDS011;6082;49.306;12.862;2023-04-03T02:58:48;3.20;;;2.07;;
12042;SDS011;6082;49.306;12.862;2023-04-03T03:01:14;3.33;;;2.37;;
12042;SDS011;6082;49.306;12.862;2023-04-03T03:03:43;3.63;;;1.90;;
12042;SDS011;6082;49.306;12.862;2023-04-03T03:06:12;5.17;;;2.37;;
12042;SDS011;6082;49.306;12.862;2023-04-03T03:08:38;2.97;;;1.77;;
12042;SDS011;6082;49.306;12.862;2023-04-03T03:11:04;5.70;;;2.03;;
12042;SDS011;6082;49.306;12.862;2023-04-03T03:13:31;2.97;;;2.23;;
12042;SDS011;6082;49.306;12.862;2023-04-03T03:15:57;2.20;;;1.77;;
12042;SDS011;6082;49.306;12.862;2023-04-03T03:18:23;3.70;;;1.93;;
12042;SDS011;6082;49.306;12.862;2023-04-03T03:20:53;2.57;;;2.03;;
12042;SDS011;6082;49.306;12.862;2023-04-03T03:23:20;7.00;;;2.50;;
12042;SDS011;6082;49.306;12.862;2023-04-03T03:25:46;3.27;;;2.33;;
12042;SDS011;6082;49.306;12.862;2023-04-03T03:28:12;2.70;;;1.90;;
12042;SDS011;6082;49.306;12.862;2023-04-03T03:30:38;3.60;;;2.43;;
12042;SDS011;6082;49.306;12.862;2023-04-03T03:33:04;3.33;;;2.20;;
12042;SDS011;6082;49.306;12.862;2023-04-03T03:35:30;5.07;;;2.10;;
12042;SDS011;6082;49.306;12.862;2023-04-03T03:37:57;3.30;;;2.03;;
12042;SDS011;6082;49.306;12.862;2023-04-03T03:40:23;3.73;;;2.57;;
12042;SDS011;6082;49.306;12.862;2023-04-03T03:42:49;2.63;;;1.90;;
12042;SDS011;6082;49.306;12.862;2023-04-03T03:45:15;3.10;;;2.10;;
12042;SDS011;6082;49.306;12.862;2023-04-03T03:47:41;5.90;;;2.43;;
12042;SDS011;6082;49.306;12.862;2023-04-03T03:50:08;3.80;;;2.13;;
12042;SDS011;6082;49.306;12.862;2023-04-03T03:52:34;3.03;;;2.17;;
12042;SDS011;6082;49.306;12.862;2023-04-03T03:55:00;4.90;;;2.23;;
12042;SDS011;6082;49.306;12.862;2023-04-03T03:57:26;4.20;;;2.73;;
12042;SDS011;6082;49.306;12.862;2023-04-03T03:59:53;4.37;;;2.20;;
12042;SDS011;6082;49.306;12.862;2023-04-03T04:02:20;3.00;;;2.60;;
12042;SDS011;6082;49.306;12.862;2023-04-03T04:04:46;3.23;;;2.00;;
12042;SDS011;6082;49.306;12.862;2023-04-03T04:07:12;2.40;;;2.00;;
12042;SDS011;6082;49.306;12.862;2023-04-03T04:09:38;3.57;;;2.57;;
12042;SDS011;6082;49.306;12.862;2023-04-03T04:12:04;2.70;;;2.10;;
12042;SDS011;6082;49.306;12.862;2023-04-03T04:14:31;3.70;;;2.60;;
12042;SDS011;6082;49.306;12.862;2023-04-03T04:16:57;3.83;;;2.33;;
12042;SDS011;6082;49.306;12.862;2023-04-03T04:19:26;3.97;;;1.93;;
12042;SDS011;6082;49.306;12.862;2023-04-03T04:21:52;8.67;;;2.47;;
12042;SDS011;6082;49.306;12.862;2023-04-03T04:24:18;4.63;;;2.37;;
12042;SDS011;6082;49.306;12.862;2023-04-03T04:26:44;4.83;;;3.00;;
12042;SDS011;6082;49.306;12.862;2023-04-03T04:29:10;3.10;;;2.63;;
12042;SDS011;6082;49.306;12.862;2023-04-03T04:31:36;3.63;;;2.33;;
12042;SDS011;6082;49.306;12.862;2023-04-03T04:34:03;3.23;;;2.53;;
12042;SDS011;6082;49.306;12.862;2023-04-03T04:36:29;3.13;;;2.03;;
12042;SDS011;6082;49.306;12.862;2023-04-03T04:38:55;3.83;;;2.70;;
12042;SDS011;6082;49.306;12.862;2023-04-03T04:41:22;6.93;;;2.60;;
12042;SDS011;6082;49.306;12.862;2023-04-03T04:43:48;3.53;;;2.60;;
12042;SDS011;6082;49.306;12.862;2023-04-03T04:46:15;6.93;;;2.50;;
12042;SDS011;6082;49.306;12.862;2023-04-03T04:48:41;3.97;;;2.60;;
12042;SDS011;6082;49.306;12.862;2023-04-03T04:51:07;3.43;;;2.53;;
12042;SDS011;6082;49.306;12.862;2023-04-03T04:53:33;8.80;;;2.67;;
12042;SDS011;6082;49.306;12.862;2023-04-03T04:55:59;3.37;;;2.43;;
12042;SDS011;6082;49.306;12.862;2023-04-03T04:58:26;5.80;;;2.73;;
12042;SDS011;6082;49.306;12.862;2023-04-03T05:01:02;5.40;;;2.60;;
12042;SDS011;6082;49.306;12.862;2023-04-03T05:03:28;4.37;;;2.37;;
12042;SDS011;6082;49.306;12.862;2023-04-03T05:05:54;2.97;;;2.20;;
12042;SDS011;6082;49.306;12.862;2023-04-03T05:08:21;5.07;;;2.90;;
12042;SDS011;6082;49.306;12.862;2023-04-03T05:10:47;3.37;;;2.03;;
12042;SDS011;6082;49.306;12.862;2023-04-03T05:13:13;4.27;;;2.50;;
12042;SDS011;6082;49.306;12.862;2023-04-03T05:15:40;5.27;;;2.97;;
12042;SDS011;6082;49.306;12.862;2023-04-03T05:18:06;6.53;;;2.77;;
12042;SDS011;6082;49.306;12.862;2023-04-03T05:20:32;3.40;;;2.50;;
12042;SDS011;6082;49.306;12.862;2023-04-03T05:22:59;3.77;;;2.53;;
12042;SDS011;6082;49.306;12.862;2023-04-03T05:25:26;3.77;;;2.57;;
12042;SDS011;6082;49.306;12.862;2023-04-03T05:27:52;4.33;;;3.20;;
12042;SDS011;6082;49.306;12.862;2023-04-03T05:30:18;7.53;;;2.73;;
12042;SDS011;6082;49.306;12.862;2023-04-03T05:32:44;4.33;;;2.80;;
12042;SDS011;6082;49.306;12.862;2023-04-03T05:35:10;7.33;;;3.27;;
12042;SDS011;6082;49.306;12.862;2023-04-03T05:37:37;4.80;;;2.57;;
12042;SDS011;6082;49.306;12.862;2023-04-03T05:40:03;5.43;;;2.30;;
12042;SDS011;6082;49.306;12.862;2023-04-03T05:42:29;6.50;;;2.30;;
12042;SDS011;6082;49.306;12.862;2023-04-03T05:44:55;4.90;;;2.43;;
12042;SDS011;6082;49.306;12.862;2023-04-03T05:47:22;3.37;;;2.10;;
12042;SDS011;6082;49.306;12.862;2023-04-03T05:49:48;2.43;;;1.47;;
12042;SDS011;6082;49.306;12.862;2023-04-03T05:52:27;2.00;;;1.33;;
12042;SDS011;6082;49.306;12.862;2023-04-03T05:54:53;1.80;;;1.27;;
12042;SDS011;6082;49.306;12.862;2023-04-03T05:57:20;1.27;;;1.00;;
12042;SDS011;6082;49.306;12.862;2023-04-03T05:59:46;4.17;;;1.63;;
12042;SDS011;6082;49.306;12.862;2023-04-03T06:02:15;1.70;;;1.00;;
12042;SDS011;6082;49.306;12.862;2023-04-03T06:04:41;2.27;;;1.27;;
12042;SDS011;6082;49.306;12.862;2023-04-03T06:07:10;2.20;;;1.47;;
12042;SDS011;6082;49.306;12.862;2023-04-03T06:09:40;4.90;;;1.50;;
12042;SDS011;6082;49.306;12.862;2023-04-03T06:12:06;2.40;;;1.20;;
12042;SDS011;6082;49.306;12.862;2023-04-03T06:14:32;1.77;;;0.80;;
12042;SDS011;6082;49.306;12.862;2023-04-03T06:16:58;3.20;;;1.50;;
12042;SDS011;6082;49.306;12.862;2023-04-03T06:19:24;1.57;;;1.00;;
12042;SDS011;6082;49.306;12.862;2023-04-03T06:21:51;1.63;;;1.07;;
12042;SDS011;6082;49.306;12.862;2023-04-03T06:24:17;3.60;;;1.40;;
12042;SDS011;6082;49.306;12.862;2023-04-03T06:26:44;0.50;;;0.50;;
12042;SDS011;6082;49.306;12.862;2023-04-03T06:29:11;2.33;;;1.20;;
12042;SDS011;6082;49.306;12.862;2023-04-03T06:31:37;3.63;;;1.20;;
12042;SDS011;6082;49.306;12.862;2023-04-03T06:34:06;1.87;;;1.13;;
12042;SDS011;6082;49.306;12.862;2023-04-03T06:36:33;3.43;;;1.33;;
12042;SDS011;6082;49.306;12.862;2023-04-03T06:39:00;0.73;;;0.57;;
12042;SDS011;6082;49.306;12.862;2023-04-03T06:41:26;1.90;;;1.00;;
12042;SDS011;6082;49.306;12.862;2023-04-03T06:43:52;1.13;;;0.63;;
12042;SDS011;6082;49.306;12.862;2023-04-03T06:46:21;1.00;;;0.80;;
12042;SDS011;6082;49.306;12.862;2023-04-03T06:48:48;1.43;;;0.83;;
12042;SDS011;6082;49.306;12.862;2023-04-03T06:51:19;3.00;;;0.80;;
12042;SDS011;6082;49.306;12.862;2023-04-03T06:53:46;2.97;;;0.80;;
12042;SDS011;6082;49.306;12.862;2023-04-03T06:56:13;2.27;;;1.10;;
12042;SDS011;6082;49.306;12.862;2023-04-03T06:58:39;0.87;;;0.80;;
12042;SDS011;6082;49.306;12.862;2023-04-03T07:01:10;1.80;;;1.10;;
12042;SDS011;6082;49.306;12.862;2023-04-03T07:03:37;1.70;;;1.23;;
12042;SDS011;6082;49.306;12.862;2023-04-03T07:06:03;1.47;;;0.83;;
12042;SDS011;6082;49.306;12.862;2023-04-03T07:08:30;4.53;;;1.30;;
12042;SDS011;6082;49.306;12.862;2023-04-03T07:10:57;2.60;;;1.13;;
12042;SDS011;6082;49.306;12.862;2023-04-03T07:13:23;1.30;;;0.90;;
12042;SDS011;6082;49.306;12.862;2023-04-03T07:15:49;2.73;;;0.80;;
12042;SDS011;6082;49.306;12.862;2023-04-03T07:18:15;1.40;;;1.00;;
12042;SDS011;6082;49.306;12.862;2023-04-03T07:20:42;1.50;;;0.90;;
12042;SDS011;6082;49.306;12.862;2023-04-03T07:23:08;3.07;;;0.80;;
12042;SDS011;6082;49.306;12.862;2023-04-03T07:25:35;1.73;;;1.03;;
12042;SDS011;6082;49.306;12.862;2023-04-03T07:28:02;1.37;;;0.93;;
12042;SDS011;6082;49.306;12.862;2023-04-03T07:30:29;1.20;;;0.80;;
12042;SDS011;6082;49.306;12.862;2023-04-03T07:32:55;1.87;;;1.07;;
12042;SDS011;6082;49.306;12.862;2023-04-03T07:35:21;2.13;;;1.00;;
12042;SDS011;6082;49.306;12.862;2023-04-03T07:37:47;4.43;;;1.10;;
12042;SDS011;6082;49.306;12.862;2023-04-03T07:40:13;2.83;;;1.00;;
12042;SDS011;6082;49.306;12.862;2023-04-03T07:42:39;2.53;;;1.10;;
12042;SDS011;6082;49.306;12.862;2023-04-03T07:45:07;1.27;;;0.83;;
12042;SDS011;6082;49.306;12.862;2023-04-03T07:47:33;2.27;;;1.43;;
12042;SDS011;6082;49.306;12.862;2023-04-03T07:49:59;2.07;;;0.90;;
12042;SDS011;6082;49.306;12.862;2023-04-03T07:52:25;1.23;;;0.77;;
12042;SDS011;6082;49.306;12.862;2023-04-03T07:54:51;3.50;;;1.13;;
12042;SDS011;6082;49.306;12.862;2023-04-03T07:57:17;2.53;;;1.03;;
12042;SDS011;6082;49.306;12.862;2023-04-03T07:59:43;2.87;;;1.10;;
12042;SDS011;6082;49.306;12.862;2023-04-03T08:02:09;1.03;;;0.80;;
12042;SDS011;6082;49.306;12.862;2023-04-03T08:04:36;1.40;;;0.80;;
12042;SDS011;6082;49.306;12.862;2023-04-03T08:07:02;0.83;;;0.70;;
12042;SDS011;6082;49.306;12.862;2023-04-03T08:09:28;3.80;;;0.73;;
12042;SDS011;6082;49.306;12.862;2023-04-03T08:11:54;1.20;;;1.10;;
12042;SDS011;6082;49.306;12.862;2023-04-03T08:14:20;0.87;;;0.77;;
12042;SDS011;6082;49.306;12.862;2023-04-03T08:16:46;1.77;;;1.00;;
12042;SDS011;6082;49.306;12.862;2023-04-03T08:19:13;2.50;;;0.93;;
12042;SDS011;6082;49.306;12.862;2023-04-03T08:21:41;0.93;;;0.53;;
12042;SDS011;6082;49.306;12.862;2023-04-03T08:24:07;3.83;;;1.17;;
12042;SDS011;6082;49.306;12.862;2023-04-03T08:26:34;1.77;;;1.17;;
12042;SDS011;6082;49.306;12.862;2023-04-03T08:29:00;3.57;;;1.10;;
12042;SDS011;6082;49.306;12.862;2023-04-03T08:31:26;2.80;;;0.87;;
12042;SDS011;6082;49.306;12.862;2023-04-03T08:33:52;2.60;;;0.50;;
12042;SDS011;6082;49.306;12.862;2023-04-03T08:36:23;1.00;;;0.90;;
12042;SDS011;6082;49.306;12.862;2023-04-03T08:38:50;0.80;;;0.60;;
12042;SDS011;6082;49.306;12.862;2023-04-03T08:41:22;3.00;;;1.00;;
12042;SDS011;6082;49.306;12.862;2023-04-03T08:44:09;2.30;;;1.00;;
12042;SDS011;6082;49.306;12.862;2023-04-03T08:49:18;0.73;;;0.57;;
12042;SDS011;6082;49.306;12.862;2023-04-03T08:51:47;1.33;;;0.73;;
12042;SDS011;6082;49.306;12.862;2023-04-03T08:54:28;1.33;;;0.60;;
12042;SDS011;6082;49.306;12.862;2023-04-03T08:56:55;1.40;;;0.80;;
12042;SDS011;6082;49.306;12.862;2023-04-03T08:59:26;3.10;;;1.03;;
12042;SDS011;6082;49.306;12.862;2023-04-03T09:01:53;0.87;;;0.80;;
12042;SDS011;6082;49.306;12.862;2023-04-03T09:04:20;2.60;;;0.70;;
12042;SDS011;6082;49.306;12.862;2023-04-03T09:06:49;1.30;;;0.70;;
12042;SDS011;6082;49.306;12.862;2023-04-03T09:09:36;0.67;;;0.67;;
12042;SDS011;6082;49.306;12.862;2023-04-03T09:12:18;1.20;;;0.90;;
12042;SDS011;6082;49.306;12.862;2023-04-03T09:17:41;0.90;;;0.70;;
12042;SDS011;6082;49.306;12.862;2023-04-03T09:22:54;2.00;;;1.03;;
12042;SDS011;6082;49.306;12.862;2023-04-03T09:25:25;1.07;;;0.87;;
12042;SDS011;6082;49.306;12.862;2023-04-03T09:27:52;2.30;;;0.90;;
12042;SDS011;6082;49.306;12.862;2023-04-03T09:30:19;0.97;;;0.67;;
12042;SDS011;6082;49.306;12.862;2023-04-03T09:32:47;1.57;;;0.80;;
12042;SDS011;6082;49.306;12.862;2023-04-03T09:37:40;1.43;;;0.83;;
12042;SDS011;6082;49.306;12.862;2023-04-03T09:43:00;1.17;;;0.80;;
12042;SDS011;6082;49.306;12.862;2023-04-03T09:50:32;0.83;;;0.83;;
12042;SDS011;6082;49.306;12.862;2023-04-03T09:52:59;1.30;;;0.73;;
12042;SDS011;6082;49.306;12.862;2023-04-03T09:55:29;0.83;;;0.73;;
12042;SDS011;6082;49.306;12.862;2023-04-03T09:57:57;0.87;;;0.73;;
12042;SDS011;6082;49.306;12.862;2023-04-03T10:00:28;1.23;;;0.60;;
12042;SDS011;6082;49.306;12.862;2023-04-03T10:02:56;1.27;;;0.87;;
12042;SDS011;6082;49.306;12.862;2023-04-03T10:10:44;2.43;;;0.77;;
12042;SDS011;6082;49.306;12.862;2023-04-03T10:13:14;1.37;;;1.23;;
12042;SDS011;6082;49.306;12.862;2023-04-03T10:15:49;0.60;;;0.60;;
12042;SDS011;6082;49.306;12.862;2023-04-03T10:20:53;2.73;;;1.00;;
12042;SDS011;6082;49.306;12.862;2023-04-03T10:23:42;2.60;;;1.30;;
12042;SDS011;6082;49.306;12.862;2023-04-03T10:34:30;1.27;;;0.90;;
12042;SDS011;6082;49.306;12.862;2023-04-03T10:42:10;1.10;;;0.97;;
12042;SDS011;6082;49.306;12.862;2023-04-03T10:44:49;3.50;;;0.90;;
12042;SDS011;6082;49.306;12.862;2023-04-03T10:49:50;2.10;;;1.10;;
12042;SDS011;6082;49.306;12.862;2023-04-03T10:55:48;3.30;;;0.97;;
12042;SDS011;6082;49.306;12.862;2023-04-03T10:57:42;1.13;;;0.80;;
12042;SDS011;6082;49.306;12.862;2023-04-03T11:00:20;1.17;;;0.80;;
12042;SDS011;6082;49.306;12.862;2023-04-03T11:05:31;0.73;;;0.73;;
12042;SDS011;6082;49.306;12.862;2023-04-03T11:07:59;1.50;;;1.13;;
12042;SDS011;6082;49.306;12.862;2023-04-03T11:12:56;1.60;;;1.00;;
12042;SDS011;6082;49.306;12.862;2023-04-03T11:15:25;1.97;;;1.10;;
12042;SDS011;6082;49.306;12.862;2023-04-03T11:18:00;2.23;;;1.40;;
12042;SDS011;6082;49.306;12.862;2023-04-03T11:20:32;1.23;;;1.07;;
12042;SDS011;6082;49.306;12.862;2023-04-03T11:25:43;2.20;;;0.90;;
12042;SDS011;6082;49.306;12.862;2023-04-03T11:28:12;3.20;;;1.03;;
12042;SDS011;6082;49.306;12.862;2023-04-03T11:35:47;1.63;;;1.20;;
12042;SDS011;6082;49.306;12.862;2023-04-03T11:38:17;0.90;;;0.80;;
12042;SDS011;6082;49.306;12.862;2023-04-03T11:40:44;1.20;;;1.17;;
12042;SDS011;6082;49.306;12.862;2023-04-03T11:46:04;2.43;;;1.77;;
12042;SDS011;6082;49.306;12.862;2023-04-03T11:51:43;4.43;;;1.30;;
12042;SDS011;6082;49.306;12.862;2023-04-03T11:53:46;2.00;;;1.10;;
12042;SDS011;6082;49.306;12.862;2023-04-03T12:04:22;1.10;;;0.90;;
12042;SDS011;6082;49.306;12.862;2023-04-03T12:06:50;1.50;;;0.90;;
12042;SDS011;6082;49.306;12.862;2023-04-03T12:09:25;1.00;;;0.90;;
12042;SDS011;6082;49.306;12.862;2023-04-03T12:11:52;2.73;;;0.77;;
12042;SDS011;6082;49.306;12.862;2023-04-03T12:14:18;0.73;;;0.73;;
12042;SDS011;6082;49.306;12.862;2023-04-03T12:16:47;2.40;;;1.00;;
12042;SDS011;6082;49.306;12.862;2023-04-03T12:26:38;1.57;;;1.23;;
12042;SDS011;6082;49.306;12.862;2023-04-03T12:29:13;1.30;;;0.90;;
12042;SDS011;6082;49.306;12.862;2023-04-03T12:31:44;0.90;;;0.80;;
12042;SDS011;6082;49.306;12.862;2023-04-03T12:39:20;0.93;;;0.83;;
12042;SDS011;6082;49.306;12.862;2023-04-03T12:45:26;1.83;;;0.93;;
12042;SDS011;6082;49.306;12.862;2023-04-03T12:47:34;0.90;;;0.80;;
12042;SDS011;6082;49.306;12.862;2023-04-03T12:50:13;0.90;;;0.90;;
12042;SDS011;6082;49.306;12.862;2023-04-03T12:52:43;1.30;;;0.97;;
12042;SDS011;6082;49.306;12.862;2023-04-03T12:55:18;2.17;;;0.90;;
12042;SDS011;6082;49.306;12.862;2023-04-03T12:57:45;2.33;;;0.80;;
12042;SDS011;6082;49.306;12.862;2023-04-03T13:02:54;1.77;;;1.17;;
12042;SDS011;6082;49.306;12.862;2023-04-03T13:05:21;0.97;;;0.97;;
12042;SDS011;6082;49.306;12.862;2023-04-03T13:07:52;1.30;;;1.00;;
12042;SDS011;6082;49.306;12.862;2023-04-03T13:10:22;1.07;;;0.80;;
12042;SDS011;6082;49.306;12.862;2023-04-03T13:15:20;1.20;;;0.83;;
12042;SDS011;6082;49.306;12.862;2023-04-03T13:17:46;1.27;;;0.93;;
12042;SDS011;6082;49.306;12.862;2023-04-03T13:20:19;4.87;;;1.43;;
12042;SDS011;6082;49.306;12.862;2023-04-03T13:22:50;2.03;;;1.27;;
12042;SDS011;6082;49.306;12.862;2023-04-03T13:25:17;4.83;;;1.07;;
12042;SDS011;6082;49.306;12.862;2023-04-03T13:27:43;1.60;;;0.90;;
12042;SDS011;6082;49.306;12.862;2023-04-03T13:30:27;1.30;;;0.90;;
12042;SDS011;6082;49.306;12.862;2023-04-03T13:32:54;0.93;;;0.90;;
12042;SDS011;6082;49.306;12.862;2023-04-03T13:35:26;1.43;;;0.97;;
12042;SDS011;6082;49.306;12.862;2023-04-03T13:37:56;1.27;;;0.93;;
12042;SDS011;6082;49.306;12.862;2023-04-03T13:40:23;4.17;;;1.37;;
12042;SDS011;6082;49.306;12.862;2023-04-03T13:43:05;2.17;;;0.90;;
12042;SDS011;6082;49.306;12.862;2023-04-03T13:45:33;1.40;;;0.90;;
12042;SDS011;6082;49.306;12.862;2023-04-03T13:51:03;2.93;;;0.90;;
12042;SDS011;6082;49.306;12.862;2023-04-03T13:53:30;1.17;;;1.07;;
12042;SDS011;6082;49.306;12.862;2023-04-03T13:58:30;1.60;;;0.97;;
12042;SDS011;6082;49.306;12.862;2023-04-03T14:01:07;3.47;;;1.10;;
12042;SDS011;6082;49.306;12.862;2023-04-03T14:03:51;2.20;;;0.80;;
12042;SDS011;6082;49.306;12.862;2023-04-03T14:06:18;2.10;;;0.90;;
12042;SDS011;6082;49.306;12.862;2023-04-03T14:08:45;1.77;;;1.20;;
12042;SDS011;6082;49.306;12.862;2023-04-03T14:11:14;1.37;;;1.13;;
12042;SDS011;6082;49.306;12.862;2023-04-03T14:13:41;1.20;;;1.10;;
12042;SDS011;6082;49.306;12.862;2023-04-03T14:16:07;1.40;;;0.73;;
12042;SDS011;6082;49.306;12.862;2023-04-03T14:18:34;1.20;;;1.03;;
12042;SDS011;6082;49.306;12.862;2023-04-03T14:21:01;1.83;;;1.10;;
12042;SDS011;6082;49.306;12.862;2023-04-03T14:23:27;0.67;;;0.67;;
12042;SDS011;6082;49.306;12.862;2023-04-03T14:25:53;1.10;;;0.90;;
12042;SDS011;6082;49.306;12.862;2023-04-03T14:28:21;1.03;;;0.90;;
12042;SDS011;6082;49.306;12.862;2023-04-03T14:30:48;1.57;;;1.10;;
12042;SDS011;6082;49.306;12.862;2023-04-03T14:33:17;0.80;;;0.80;;
12042;SDS011;6082;49.306;12.862;2023-04-03T14:35:44;1.47;;;1.20;;
12042;SDS011;6082;49.306;12.862;2023-04-03T14:38:29;1.97;;;1.00;;
12042;SDS011;6082;49.306;12.862;2023-04-03T14:40:56;1.23;;;1.10;;
12042;SDS011;6082;49.306;12.862;2023-04-03T14:43:22;2.00;;;1.20;;
12042;SDS011;6082;49.306;12.862;2023-04-03T14:45:49;2.70;;;1.10;;
12042;SDS011;6082;49.306;12.862;2023-04-03T14:48:20;2.23;;;1.13;;
12042;SDS011;6082;49.306;12.862;2023-04-03T14:50:47;1.53;;;0.87;;
12042;SDS011;6082;49.306;12.862;2023-04-03T14:53:13;1.67;;;1.30;;
12042;SDS011;6082;49.306;12.862;2023-04-03T14:55:41;2.17;;;1.10;;
12042;SDS011;6082;49.306;12.862;2023-04-03T14:58:12;1.23;;;1.00;;
12042;SDS011;6082;49.306;12.862;2023-04-03T15:00:38;3.00;;;1.03;;
12042;SDS011;6082;49.306;12.862;2023-04-03T15:03:04;1.20;;;1.10;;
12042;SDS011;6082;49.306;12.862;2023-04-03T15:05:31;1.70;;;0.83;;
12042;SDS011;6082;49.306;12.862;2023-04-03T15:07:57;1.20;;;0.93;;
12042;SDS011;6082;49.306;12.862;2023-04-03T15:10:29;3.73;;;1.20;;
12042;SDS011;6082;49.306;12.862;2023-04-03T15:12:55;1.80;;;1.10;;
12042;SDS011;6082;49.306;12.862;2023-04-03T15:15:21;2.23;;;1.83;;
12042;SDS011;6082;49.306;12.862;2023-04-03T15:17:50;2.37;;;1.30;;
12042;SDS011;6082;49.306;12.862;2023-04-03T15:20:19;2.20;;;1.47;;
12042;SDS011;6082;49.306;12.862;2023-04-03T15:22:45;1.20;;;1.10;;
12042;SDS011;6082;49.306;12.862;2023-04-03T15:25:12;1.37;;;1.27;;
12042;SDS011;6082;49.306;12.862;2023-04-03T15:27:38;5.07;;;1.33;;
12042;SDS011;6082;49.306;12.862;2023-04-03T15:30:07;2.97;;;1.17;;
12042;SDS011;6082;49.306;12.862;2023-04-03T15:32:34;1.40;;;1.30;;
12042;SDS011;6082;49.306;12.862;2023-04-03T15:35:00;3.33;;;1.80;;
12042;SDS011;6082;49.306;12.862;2023-04-03T15:37:27;1.50;;;1.20;;
12042;SDS011;6082;49.306;12.862;2023-04-03T15:39:53;2.00;;;1.23;;
12042;SDS011;6082;49.306;12.862;2023-04-03T15:42:19;2.50;;;1.10;;
12042;SDS011;6082;49.306;12.862;2023-04-03T15:44:45;1.27;;;1.17;;
12042;SDS011;6082;49.306;12.862;2023-04-03T15:47:11;2.13;;;1.10;;
12042;SDS011;6082;49.306;12.862;2023-04-03T15:49:38;2.40;;;1.00;;
12042;SDS011;6082;49.306;12.862;2023-04-03T15:52:04;1.40;;;1.23;;
12042;SDS011;6082;49.306;12.862;2023-04-03T15:54:30;4.60;;;1.40;;
12042;SDS011;6082;49.306;12.862;2023-04-03T15:56:56;1.10;;;1.00;;
12042;SDS011;6082;49.306;12.862;2023-04-03T15:59:22;2.03;;;1.10;;
12042;SDS011;6082;49.306;12.862;2023-04-03T16:01:52;1.73;;;1.10;;
12042;SDS011;6082;49.306;12.862;2023-04-03T16:04:18;0.67;;;0.63;;
12042;SDS011;6082;49.306;12.862;2023-04-03T16:06:45;1.17;;;0.93;;
12042;SDS011;6082;49.306;12.862;2023-04-03T16:09:11;1.10;;;1.00;;
12042;SDS011;6082;49.306;12.862;2023-04-03T16:11:38;0.80;;;0.80;;
12042;SDS011;6082;49.306;12.862;2023-04-03T16:14:05;2.17;;;1.30;;
12042;SDS011;6082;49.306;12.862;2023-04-03T16:16:31;1.57;;;1.20;;
12042;SDS011;6082;49.306;12.862;2023-04-03T16:18:57;4.80;;;1.07;;
12042;SDS011;6082;49.306;12.862;2023-04-03T16:21:23;1.20;;;0.90;;
12042;SDS011;6082;49.306;12.862;2023-04-03T16:23:50;1.40;;;0.90;;
12042;SDS011;6082;49.306;12.862;2023-04-03T16:26:16;1.10;;;0.87;;
12042;SDS011;6082;49.306;12.862;2023-04-03T16:28:42;3.27;;;1.03;;
12042;SDS011;6082;49.306;12.862;2023-04-03T16:31:09;1.00;;;0.73;;
12042;SDS011;6082;49.306;12.862;2023-04-03T16:33:35;1.33;;;1.00;;
12042;SDS011;6082;49.306;12.862;2023-04-03T16:36:02;0.73;;;0.73;;
12042;SDS011;6082;49.306;12.862;2023-04-03T16:38:28;1.63;;;1.13;;